createdAt,value
2022-08-21T00:01:58.099Z,99.90
2022-08-21T00:04:30.180Z,99.90
2022-08-21T00:06:58.327Z,99.90
2022-08-21T00:09:27.818Z,99.90
2022-08-21T00:11:54.639Z,99.90
2022-08-21T00:14:23.548Z,99.90
2022-08-21T00:16:50.437Z,99.90
2022-08-21T00:19:17.416Z,99.90
2022-08-21T00:21:44.581Z,99.90
2022-08-21T00:24:12.587Z,99.90
2022-08-21T00:26:41.601Z,99.90
2022-08-21T00:29:08.468Z,99.90
2022-08-21T00:31:40.446Z,99.90
2022-08-21T00:34:08.351Z,99.90
2022-08-21T00:36:36.137Z,99.90
2022-08-21T00:39:09.972Z,99.90
2022-08-21T00:41:39.205Z,99.90
2022-08-21T00:44:09.581Z,99.90
2022-08-21T00:46:42.799Z,99.90
2022-08-21T00:49:11.004Z,99.90
2022-08-21T00:51:44.773Z,99.90
2022-08-21T00:54:17.965Z,99.90
2022-08-21T00:56:50.874Z,99.90
2022-08-21T00:59:22.270Z,99.90
2022-08-21T01:01:50.851Z,99.90
2022-08-21T01:04:18.046Z,99.90
2022-08-21T01:06:45.026Z,99.90
2022-08-21T01:09:15.270Z,99.90
2022-08-21T01:11:48.365Z,99.90
2022-08-21T01:14:19.381Z,99.90
2022-08-21T01:16:49.453Z,99.90
2022-08-21T01:19:18.298Z,99.90
2022-08-21T01:21:45.198Z,99.90
2022-08-21T01:24:12.658Z,99.90
2022-08-21T01:26:40.994Z,99.90
2022-08-21T01:29:42.964Z,99.90
2022-08-21T01:32:18.528Z,99.90
2022-08-21T01:34:47.698Z,99.90
2022-08-21T01:37:21.331Z,99.90
2022-08-21T01:39:51.343Z,99.90
2022-08-21T01:42:18.324Z,99.90
2022-08-21T01:44:47.865Z,99.90
2022-08-21T01:47:17.611Z,99.90
2022-08-21T01:49:46.169Z,99.90
2022-08-21T01:52:13.116Z,99.90
2022-08-21T01:54:42.388Z,99.90
2022-08-21T01:57:09.306Z,99.90
2022-08-21T01:59:37.882Z,99.90
2022-08-21T02:02:07.488Z,99.90
2022-08-21T02:04:34.774Z,99.90
2022-08-21T02:07:04.906Z,99.90
2022-08-21T02:09:35.334Z,99.90
2022-08-21T02:12:07.143Z,99.90
2022-08-21T02:14:33.971Z,99.90
2022-08-21T02:17:08.870Z,99.90
2022-08-21T02:19:39.528Z,99.90
2022-08-21T02:22:11.215Z,99.90
2022-08-21T02:24:54.485Z,99.90
2022-08-21T02:27:26.674Z,99.90
2022-08-21T02:29:56.593Z,99.90
2022-08-21T02:32:23.443Z,99.90
2022-08-21T02:34:50.879Z,99.90
2022-08-21T02:37:17.766Z,99.90
2022-08-21T02:39:44.653Z,99.90
2022-08-21T02:42:11.492Z,99.90
2022-08-21T02:44:38.275Z,99.90
2022-08-21T02:47:05.308Z,99.90
2022-08-21T02:49:32.123Z,99.90
2022-08-21T02:51:59.012Z,99.90
2022-08-21T02:54:25.991Z,99.90
2022-08-21T02:56:52.929Z,99.90
2022-08-21T02:59:19.931Z,99.90
2022-08-21T03:01:49.758Z,99.90
2022-08-21T03:04:19.264Z,99.90
2022-08-21T03:06:49.352Z,99.90
2022-08-21T03:09:23.288Z,99.90
2022-08-21T03:11:55.007Z,99.90
2022-08-21T03:14:21.876Z,99.90
2022-08-21T03:16:51.079Z,99.90
2022-08-21T03:19:17.862Z,99.90
2022-08-21T03:21:47.677Z,99.90
2022-08-21T03:24:14.601Z,99.90
2022-08-21T03:26:46.591Z,99.90
2022-08-21T03:29:13.394Z,99.90
2022-08-21T03:31:40.590Z,99.90
2022-08-21T03:34:09.917Z,99.90
2022-08-21T03:36:36.754Z,99.90
2022-08-21T03:39:04.601Z,99.90
2022-08-21T03:41:31.401Z,99.90
2022-08-21T03:44:00.889Z,99.90
2022-08-21T03:46:27.747Z,99.90
2022-08-21T03:48:54.704Z,99.90
2022-08-21T03:51:24.175Z,99.90
2022-08-21T03:53:51.046Z,99.90
2022-08-21T03:56:17.844Z,99.90
2022-08-21T03:58:47.016Z,99.90
2022-08-21T04:01:13.901Z,99.90
2022-08-21T04:03:40.724Z,99.90
2022-08-21T04:06:08.344Z,99.90
2022-08-21T04:08:35.781Z,99.90
2022-08-21T04:11:06.434Z,99.90
2022-08-21T04:13:33.214Z,99.90
2022-08-21T04:16:02.084Z,99.90
2022-08-21T04:18:29.035Z,99.90
2022-08-21T04:20:58.678Z,99.90
2022-08-21T04:23:28.556Z,99.90
2022-08-21T04:25:59.309Z,99.90
2022-08-21T04:28:35.857Z,99.90
2022-08-21T04:31:02.759Z,99.90
2022-08-21T04:33:30.129Z,99.90
2022-08-21T04:35:59.459Z,99.90
2022-08-21T04:38:33.164Z,99.90
2022-08-21T04:41:06.445Z,99.90
2022-08-21T04:43:33.404Z,99.90
2022-08-21T04:46:02.946Z,99.90
2022-08-21T04:48:33.816Z,99.90
2022-08-21T04:51:07.910Z,99.90
2022-08-21T04:53:42.962Z,99.90
2022-08-21T04:56:16.281Z,99.90
2022-08-21T04:58:43.654Z,99.90
2022-08-21T05:01:16.023Z,99.90
2022-08-21T05:03:43.516Z,99.90
2022-08-21T05:06:14.999Z,99.90
2022-08-21T05:08:44.530Z,99.90
2022-08-21T05:11:11.442Z,99.90
2022-08-21T05:13:42.290Z,99.90
2022-08-21T05:16:11.714Z,99.90
2022-08-21T05:18:38.597Z,99.90
2022-08-21T05:21:07.966Z,99.90
2022-08-21T05:23:34.742Z,99.90
2022-08-21T05:26:02.043Z,99.90
2022-08-21T05:28:32.263Z,99.90
2022-08-21T05:31:01.416Z,99.90
2022-08-21T05:33:30.866Z,99.90
2022-08-21T05:35:57.953Z,99.90
2022-08-21T05:38:29.356Z,99.90
2022-08-21T05:40:56.370Z,99.90
2022-08-21T05:43:27.914Z,99.90
2022-08-21T05:45:54.718Z,99.90
2022-08-21T05:48:23.935Z,99.90
2022-08-21T05:50:53.781Z,99.90
2022-08-21T05:53:23.105Z,99.90
2022-08-21T05:55:50.345Z,99.90
2022-08-21T05:58:20.858Z,99.90
2022-08-21T06:00:49.129Z,99.90
2022-08-21T06:03:24.553Z,99.90
2022-08-21T06:05:54.099Z,99.90
2022-08-21T06:08:24.485Z,99.90
2022-08-21T06:10:53.052Z,99.90
2022-08-21T06:13:21.320Z,99.90
2022-08-21T06:15:48.529Z,99.90
2022-08-21T06:18:16.528Z,99.90
2022-08-21T06:20:43.777Z,99.90
2022-08-21T06:23:13.815Z,99.90
2022-08-21T06:25:40.948Z,99.90
2022-08-21T06:28:13.968Z,99.90
2022-08-21T06:30:41.039Z,99.90
2022-08-21T06:33:08.262Z,99.90
2022-08-21T06:35:35.978Z,99.90
2022-08-21T06:38:03.127Z,99.90
2022-08-21T06:40:34.129Z,99.90
2022-08-21T06:43:16.269Z,99.90
2022-08-21T06:45:45.381Z,99.90
2022-08-21T06:48:16.902Z,99.90
2022-08-21T06:50:48.740Z,99.90
2022-08-21T06:53:21.046Z,99.90
2022-08-21T06:55:49.462Z,99.90
2022-08-21T06:58:21.693Z,99.90
2022-08-21T07:00:50.581Z,99.90
2022-08-21T07:03:33.724Z,99.90
2022-08-21T07:06:03.657Z,99.90
2022-08-21T07:08:30.602Z,99.90
2022-08-21T07:10:59.854Z,99.90
2022-08-21T07:13:27.904Z,99.90
2022-08-21T07:15:54.788Z,99.90
2022-08-21T07:18:21.835Z,99.90
2022-08-21T07:20:51.546Z,99.90
2022-08-21T07:23:28.987Z,99.90
2022-08-21T07:25:56.125Z,99.90
2022-08-21T07:28:23.360Z,99.90
2022-08-21T07:30:55.722Z,99.90
2022-08-21T07:33:26.608Z,99.90
2022-08-21T07:35:54.124Z,99.90
2022-08-21T07:38:21.051Z,99.90
2022-08-21T07:40:53.484Z,99.90
2022-08-21T07:43:20.415Z,99.90
2022-08-21T07:45:47.262Z,99.90
2022-08-21T07:48:16.289Z,99.90
2022-08-21T07:50:46.702Z,99.90
2022-08-21T07:53:13.710Z,99.90
2022-08-21T07:55:40.583Z,99.90
2022-08-21T07:58:09.584Z,99.90
2022-08-21T08:00:36.643Z,99.90
2022-08-21T08:03:05.822Z,99.90
2022-08-21T08:05:38.142Z,99.90
2022-08-21T08:08:05.023Z,99.90
2022-08-21T08:10:32.074Z,99.90
2022-08-21T08:12:59.512Z,99.90
2022-08-21T08:15:28.246Z,99.90
2022-08-21T08:17:56.405Z,99.90
2022-08-21T08:20:27.669Z,99.90
2022-08-21T08:22:56.733Z,99.90
2022-08-21T08:25:26.107Z,99.90
2022-08-21T08:27:55.563Z,99.90
2022-08-21T08:30:25.962Z,99.90
2022-08-21T08:32:54.271Z,99.90
2022-08-21T08:35:24.718Z,99.90
2022-08-21T08:37:54.007Z,99.90
2022-08-21T08:40:36.690Z,99.90
2022-08-21T08:43:07.670Z,99.90
2022-08-21T08:45:39.914Z,99.90
2022-08-21T08:48:16.001Z,99.90
2022-08-21T08:50:55.234Z,99.90
2022-08-21T08:53:35.889Z,99.90
2022-08-21T08:56:06.898Z,99.90
2022-08-21T08:58:42.624Z,99.90
2022-08-21T09:01:18.922Z,99.90
2022-08-21T09:03:50.661Z,99.90
2022-08-21T09:06:38.153Z,99.90
2022-08-21T09:09:34.528Z,99.90
2022-08-21T09:12:13.060Z,99.90
2022-08-21T09:15:04.951Z,99.90
2022-08-21T09:17:51.085Z,99.90
2022-08-21T09:20:36.775Z,99.90
2022-08-21T09:23:09.021Z,99.90
2022-08-21T09:25:50.945Z,99.90
2022-08-21T09:28:20.320Z,99.90
2022-08-21T09:30:49.363Z,99.90
2022-08-21T09:33:18.371Z,99.90
2022-08-21T09:35:58.611Z,99.90
2022-08-21T09:38:56.060Z,99.90
2022-08-21T09:41:29.595Z,99.90
2022-08-21T09:43:56.697Z,99.90
2022-08-21T09:46:31.016Z,99.90
2022-08-21T09:49:03.279Z,99.90
2022-08-21T09:51:36.370Z,99.90
2022-08-21T09:54:06.300Z,99.90
2022-08-21T09:57:11.027Z,99.90
2022-08-21T09:59:40.170Z,99.90
2022-08-21T10:02:33.049Z,99.90
2022-08-21T10:05:22.933Z,99.90
2022-08-21T10:07:50.788Z,99.90
2022-08-21T10:10:31.844Z,99.90
2022-08-21T10:13:04.604Z,99.90
2022-08-21T10:15:58.149Z,99.90
2022-08-21T10:18:42.388Z,99.90
2022-08-21T10:21:22.909Z,99.90
2022-08-21T10:23:58.408Z,99.90
2022-08-21T10:26:54.437Z,99.90
2022-08-21T10:29:43.165Z,99.90
2022-08-21T10:32:27.932Z,99.90
2022-08-21T10:35:23.276Z,99.90
2022-08-21T10:38:02.218Z,99.90
2022-08-21T10:40:43.642Z,99.90
2022-08-21T10:43:43.536Z,99.90
2022-08-21T10:46:23.317Z,99.90
2022-08-21T10:49:05.897Z,99.90
2022-08-21T10:51:40.281Z,99.90
2022-08-21T10:54:23.321Z,99.90
2022-08-21T10:56:55.170Z,99.90
2022-08-21T10:59:39.193Z,99.90
2022-08-21T11:02:41.293Z,99.90
2022-08-21T11:05:26.830Z,99.90
2022-08-21T11:08:19.734Z,99.90
2022-08-21T11:11:04.510Z,99.90
2022-08-21T11:13:42.494Z,99.90
2022-08-21T11:16:34.366Z,99.90
2022-08-21T11:19:41.556Z,99.90
2022-08-21T11:22:29.518Z,99.90
2022-08-21T11:25:15.093Z,99.90
2022-08-21T11:27:51.349Z,99.90
2022-08-21T11:30:18.315Z,99.90
2022-08-21T11:33:19.252Z,99.90
2022-08-21T11:36:00.962Z,99.90
2022-08-21T11:38:42.764Z,99.90
2022-08-21T11:41:18.137Z,99.90
2022-08-21T11:43:49.106Z,99.90
2022-08-21T11:46:28.821Z,99.90
2022-08-21T11:49:24.689Z,99.90
2022-08-21T11:52:05.971Z,99.90
2022-08-21T11:54:32.780Z,99.90
2022-08-21T11:57:13.430Z,99.90
2022-08-21T11:59:59.019Z,99.90
2022-08-21T12:02:32.638Z,99.90
2022-08-21T12:05:10.052Z,99.90
2022-08-21T12:07:41.239Z,99.90
2022-08-21T12:10:15.677Z,99.90
2022-08-21T12:12:44.856Z,99.90
2022-08-21T12:15:20.963Z,99.90
2022-08-21T12:18:01.429Z,99.90
2022-08-21T12:20:37.501Z,99.90
2022-08-21T12:23:19.525Z,99.90
2022-08-21T12:26:02.845Z,99.90
2022-08-21T12:28:31.952Z,99.90
2022-08-21T12:30:59.231Z,99.90
2022-08-21T12:33:41.976Z,99.90
2022-08-21T12:36:22.391Z,99.90
2022-08-21T12:38:58.438Z,98.40
2022-08-21T12:41:44.941Z,99.20
2022-08-21T12:44:19.133Z,99.90
2022-08-21T12:46:52.538Z,99.30
2022-08-21T12:49:36.729Z,99.90
2022-08-21T12:52:03.823Z,99.90
2022-08-21T12:54:40.190Z,99.90
2022-08-21T12:57:19.071Z,99.90
2022-08-21T12:59:46.251Z,99.90
2022-08-21T13:02:23.622Z,99.90
2022-08-21T13:04:51.128Z,99.90
2022-08-21T13:07:27.681Z,99.90
2022-08-21T13:10:15.585Z,99.90
2022-08-21T13:12:46.150Z,99.90
2022-08-21T13:15:15.691Z,99.90
2022-08-21T13:17:49.433Z,99.90
2022-08-21T13:20:25.416Z,99.90
2022-08-21T13:22:55.462Z,99.90
2022-08-21T13:25:27.580Z,99.90
2022-08-21T13:28:15.839Z,99.90
2022-08-21T13:30:46.383Z,99.90
2022-08-21T13:33:17.200Z,99.90
2022-08-21T13:35:51.077Z,99.90
2022-08-21T13:38:28.165Z,99.90
2022-08-21T13:41:02.279Z,99.90
2022-08-21T13:43:38.347Z,99.90
2022-08-21T13:46:16.794Z,99.90
2022-08-21T13:48:44.144Z,99.90
2022-08-21T13:51:11.374Z,99.90
2022-08-21T13:53:45.863Z,99.90
2022-08-21T13:56:29.327Z,99.90
2022-08-21T13:58:58.741Z,99.90
2022-08-21T14:01:36.618Z,99.90
2022-08-21T14:04:16.215Z,99.90
2022-08-21T14:06:43.289Z,99.90
2022-08-21T14:09:26.374Z,99.90
2022-08-21T14:11:57.585Z,99.90
2022-08-21T14:14:28.480Z,99.90
2022-08-21T14:17:24.491Z,99.90
2022-08-21T14:19:54.570Z,99.30
2022-08-21T14:22:38.753Z,97.70
2022-08-21T14:25:25.665Z,94.20
2022-08-21T14:27:56.035Z,95.70
2022-08-21T14:30:22.836Z,97.30
2022-08-21T14:32:50.710Z,98.90
2022-08-21T14:35:23.742Z,97.70
2022-08-21T14:37:52.472Z,98.70
2022-08-21T14:40:20.905Z,99.90
2022-08-21T14:42:53.018Z,98.60
2022-08-21T14:45:30.024Z,98.80
2022-08-21T14:47:58.346Z,99.90
2022-08-21T14:50:29.897Z,99.50
2022-08-21T14:52:56.773Z,99.80
2022-08-21T14:55:26.969Z,99.90
2022-08-21T14:57:55.639Z,99.40
2022-08-21T15:00:26.968Z,99.20
2022-08-21T15:03:02.475Z,99.50
2022-08-21T15:05:33.080Z,99.90
2022-08-21T15:08:00.965Z,99.90
2022-08-21T15:10:28.047Z,99.90
2022-08-21T15:12:54.964Z,99.90
2022-08-21T15:15:24.306Z,99.90
2022-08-21T15:17:53.471Z,99.90
2022-08-21T15:20:20.421Z,99.90
2022-08-21T15:22:49.821Z,99.90
2022-08-21T15:25:19.458Z,99.90
2022-08-21T15:27:53.489Z,99.90
2022-08-21T15:30:20.512Z,99.90
2022-08-21T15:32:47.394Z,99.90
2022-08-21T15:35:14.886Z,99.90
2022-08-21T15:37:44.348Z,99.90
2022-08-21T15:40:15.148Z,99.90
2022-08-21T15:42:42.917Z,99.90
2022-08-21T15:45:12.162Z,99.90
2022-08-21T15:47:42.237Z,99.90
2022-08-21T15:50:10.728Z,99.90
2022-08-21T15:52:38.017Z,99.90
2022-08-21T15:55:10.503Z,99.90
2022-08-21T15:57:45.521Z,99.90
2022-08-21T16:00:25.693Z,99.90
2022-08-21T16:02:56.121Z,99.90
2022-08-21T16:05:23.738Z,99.90
2022-08-21T16:07:53.779Z,99.90
2022-08-21T16:10:30.128Z,99.90
2022-08-21T16:13:02.318Z,99.90
2022-08-21T16:15:29.859Z,99.90
2022-08-21T16:17:57.093Z,99.90
2022-08-21T16:20:29.701Z,99.90
2022-08-21T16:22:59.013Z,99.90
2022-08-21T16:25:29.254Z,99.90
2022-08-21T16:28:01.595Z,99.90
2022-08-21T16:30:31.283Z,99.90
2022-08-21T16:33:00.947Z,99.90
2022-08-21T16:35:28.240Z,99.90
2022-08-21T16:37:57.730Z,99.90
2022-08-21T16:40:30.242Z,99.90
2022-08-21T16:42:57.332Z,99.90
2022-08-21T16:45:31.178Z,99.90
2022-08-21T16:48:04.398Z,99.90
2022-08-21T16:50:31.272Z,99.90
2022-08-21T16:52:58.332Z,99.90
2022-08-21T16:55:25.579Z,99.90
2022-08-21T16:57:55.826Z,99.90
2022-08-21T17:00:25.370Z,99.90
2022-08-21T17:02:55.730Z,99.90
2022-08-21T17:05:22.951Z,99.90
2022-08-21T17:07:49.897Z,99.90
2022-08-21T17:10:19.441Z,99.90
2022-08-21T17:12:55.665Z,99.90
2022-08-21T17:15:27.758Z,99.90
2022-08-21T17:17:59.638Z,99.90
2022-08-21T17:20:26.686Z,99.90
2022-08-21T17:22:54.149Z,99.90
2022-08-21T17:25:21.049Z,99.90
2022-08-21T17:27:53.733Z,99.90
2022-08-21T17:30:23.381Z,99.90
2022-08-21T17:32:52.618Z,99.90
2022-08-21T17:35:22.211Z,99.90
2022-08-21T17:37:49.199Z,99.90
2022-08-21T17:40:17.135Z,99.90
2022-08-21T17:42:47.143Z,99.90
2022-08-21T17:45:17.439Z,99.90
2022-08-21T17:47:51.577Z,99.90
2022-08-21T17:50:22.692Z,99.90
2022-08-21T17:52:49.941Z,99.90
2022-08-21T17:55:17.400Z,99.90
2022-08-21T17:57:45.741Z,99.90
2022-08-21T18:00:14.987Z,99.90
2022-08-21T18:02:43.866Z,99.90
2022-08-21T18:05:12.689Z,99.90
2022-08-21T18:07:39.662Z,99.90
2022-08-21T18:10:11.092Z,99.90
2022-08-21T18:12:40.618Z,99.90
2022-08-21T18:15:12.266Z,99.90
2022-08-21T18:17:45.263Z,99.90
2022-08-21T18:20:13.606Z,99.90
2022-08-21T18:22:40.419Z,99.90
2022-08-21T18:25:12.153Z,99.90
2022-08-21T18:27:42.487Z,99.90
2022-08-21T18:30:10.555Z,99.90
2022-08-21T18:32:37.402Z,99.90
2022-08-21T18:35:06.245Z,99.90
2022-08-21T18:37:36.736Z,99.90
2022-08-21T18:40:08.853Z,99.90
2022-08-21T18:42:43.061Z,99.90
2022-08-21T18:45:24.618Z,99.90
2022-08-21T18:47:53.571Z,99.90
2022-08-21T18:50:25.500Z,99.90
2022-08-21T18:52:58.179Z,99.90
2022-08-21T18:55:25.457Z,99.90
2022-08-21T18:57:55.111Z,99.90
2022-08-21T19:00:27.333Z,99.90
2022-08-21T19:02:56.922Z,99.90
2022-08-21T19:05:25.214Z,99.90
2022-08-21T19:07:56.730Z,99.90
2022-08-21T19:10:28.403Z,99.90
2022-08-21T19:13:03.992Z,99.90
2022-08-21T19:15:38.315Z,99.90
2022-08-21T19:18:07.139Z,99.90
2022-08-21T19:20:36.900Z,99.90
2022-08-21T19:23:07.455Z,99.90
2022-08-21T19:26:00.574Z,99.90
2022-08-21T19:28:40.176Z,99.90
2022-08-21T19:31:12.799Z,99.90
2022-08-21T19:33:47.795Z,99.90
2022-08-21T19:36:18.295Z,99.90
2022-08-21T19:38:46.849Z,99.90
2022-08-21T19:41:16.675Z,99.90
2022-08-21T19:43:55.194Z,99.90
2022-08-21T19:46:31.425Z,99.90
2022-08-21T19:49:00.517Z,99.90
2022-08-21T19:51:28.435Z,99.90
2022-08-21T19:53:58.035Z,99.90
2022-08-21T19:56:29.879Z,99.90
2022-08-21T19:58:58.053Z,99.90
2022-08-21T20:01:26.796Z,99.90
2022-08-21T20:03:54.890Z,99.90
2022-08-21T20:06:26.756Z,99.90
2022-08-21T20:08:57.537Z,99.90
2022-08-21T20:11:31.535Z,99.90
2022-08-21T20:13:59.267Z,99.90
2022-08-21T20:16:30.857Z,99.90
2022-08-21T20:18:58.127Z,99.90
2022-08-21T20:21:24.999Z,99.90
2022-08-21T20:23:57.727Z,99.90
2022-08-21T20:26:24.846Z,99.90
2022-08-21T20:28:52.746Z,99.90
2022-08-21T20:31:22.871Z,99.90
2022-08-21T20:33:50.897Z,99.90
2022-08-21T20:36:21.396Z,99.90
2022-08-21T20:38:51.703Z,99.90
2022-08-21T20:41:30.871Z,99.90
2022-08-21T20:43:59.155Z,99.90
2022-08-21T20:46:27.869Z,99.90
2022-08-21T20:48:55.430Z,99.90
2022-08-21T20:51:22.266Z,99.90
2022-08-21T20:54:02.531Z,99.90
2022-08-21T20:56:38.249Z,99.90
2022-08-21T20:59:19.341Z,99.90
2022-08-21T21:01:53.828Z,99.90
2022-08-21T21:04:25.815Z,99.90
2022-08-21T21:06:58.883Z,99.90
2022-08-21T21:09:40.266Z,99.90
2022-08-21T21:12:34.300Z,99.90
2022-08-21T21:15:14.112Z,99.90
2022-08-21T21:18:26.830Z,99.90
2022-08-21T21:21:01.561Z,99.90
2022-08-21T21:23:44.268Z,99.90
2022-08-21T21:26:48.819Z,99.90
2022-08-21T21:29:21.097Z,99.90
2022-08-21T21:31:49.337Z,99.90
2022-08-21T21:34:17.258Z,99.90
2022-08-21T21:36:56.305Z,99.90
2022-08-21T21:39:52.510Z,99.90
2022-08-21T21:42:30.342Z,99.90
2022-08-21T21:45:32.340Z,99.90
2022-08-21T21:54:32.856Z,99.90
2022-08-21T21:57:22.007Z,99.90
2022-08-21T22:00:15.987Z,99.90
2022-08-21T22:02:55.041Z,99.90
2022-08-21T22:05:37.008Z,99.90
2022-08-21T22:08:31.515Z,99.90
2022-08-21T22:11:24.092Z,99.90
2022-08-21T22:13:57.476Z,99.90
2022-08-21T22:16:26.989Z,99.90
2022-08-21T22:19:06.692Z,99.90
2022-08-21T22:21:40.030Z,99.90
2022-08-21T22:24:16.780Z,99.90
2022-08-21T22:26:49.415Z,99.90
2022-08-21T22:29:19.989Z,99.90
2022-08-21T22:32:06.802Z,99.90
2022-08-21T22:34:33.900Z,99.90
2022-08-21T22:37:08.725Z,99.90
2022-08-21T22:39:46.057Z,99.90
2022-08-21T22:42:25.507Z,99.90
2022-08-21T22:44:56.113Z,99.90
2022-08-21T22:47:44.901Z,99.90
2022-08-21T22:50:26.863Z,99.90
2022-08-21T22:53:04.097Z,99.90
2022-08-21T22:55:39.677Z,99.90
2022-08-21T22:58:33.602Z,99.90
2022-08-21T23:01:26.713Z,99.90
2022-08-21T23:04:12.167Z,99.90
2022-08-21T23:06:52.810Z,99.90
2022-08-21T23:09:30.937Z,99.90
2022-08-21T23:12:01.464Z,99.90
2022-08-21T23:14:47.823Z,99.90
2022-08-21T23:17:47.921Z,99.90
2022-08-21T23:20:40.111Z,99.90
2022-08-21T23:23:25.158Z,99.90
2022-08-21T23:26:05.749Z,99.90
2022-08-21T23:28:48.505Z,99.90
2022-08-21T23:31:40.534Z,99.90
2022-08-21T23:34:19.708Z,99.90
2022-08-21T23:37:24.702Z,99.90
2022-08-21T23:43:41.651Z,99.90
2022-08-21T23:46:32.392Z,99.90
2022-08-21T23:49:44.024Z,99.90
2022-08-21T23:52:48.903Z,99.90
2022-08-21T23:55:42.207Z,99.90
2022-08-21T23:58:43.504Z,99.90
